Time;durP1;ratioP1;P1;durP2;ratioP2;P2;SDS_P1;SDS_P2;PMS_P1;PMS_P2;Temp;Humidity;BMP_temperature;BMP_pressure;BME280_temperature;BME280_humidity;BME280_pressure;Samples;Min_cycle;Max_cycle;Signal;HPM_P1;HPM_P2
2022/10/21 00:01:47;;;;;;;;;;;;;;;;;;4960590;28;19930;-80
2022/10/21 00:04:13;;;;;;;;;;;;;;;;;;4963373;28;19926;-80
2022/10/21 00:06:39;;;;;;;;;;;;;;;;;;4960685;28;20009;-76
2022/10/21 00:09:05;;;;;;;;;;;;;;;;;;4967548;28;19927;-74
2022/10/21 00:11:31;;;;;;;;;;;;;;;;;;4960336;28;20361;-75
2022/10/21 00:13:57;;;;;;;;;;;;;;;;;;4965035;28;19926;-75
2022/10/21 00:16:23;;;;;;;;;;;;;;;;;;4963093;28;19934;-75
2022/10/21 00:18:49;;;;;;;;;;;;;;;;;;4965866;28;19978;-75
2022/10/21 00:21:15;;;;;;;;;;;;;;;;;;4963019;28;19926;-75
2022/10/21 00:23:41;;;;;;;;;;;;;;;;;;4965735;28;19930;-75
2022/10/21 00:26:07;;;;;;;;;;;;;;;;;;4959739;28;20065;-75
2022/10/21 00:28:33;;;;;;;;;;;;;;;;;;4957112;28;20017;-75
2022/10/21 00:30:59;;;;;;;;;;;;;;;;;;4963875;28;19939;-75
2022/10/21 00:33:25;;;;;;;;;;;;;;;;;;4965821;28;19933;-75
2022/10/21 00:35:51;;;;;;;;;;;;;;;;;;4968717;28;19926;-75
2022/10/21 00:38:17;;;;;;;;;;;;;;;;;;4965982;28;19985;-75
2022/10/21 00:40:43;;;;;;;;;;;;;;;;;;4968898;28;19930;-75
2022/10/21 00:43:09;;;;;;;;;;;;;;;;;;4966851;28;19930;-75
2022/10/21 00:45:35;;;;;;;;;;;;;;;;;;4967268;28;19945;-75
2022/10/21 00:48:00;;;;;;;;;;;;;;;;;;4966864;28;20017;-75
2022/10/21 00:50:26;;;;;;;;;;;;;;;;;;4969039;28;19926;-75
2022/10/21 00:52:52;;;;;;;;;;;;;;;;;;4966005;28;19930;-74
2022/10/21 00:55:18;;;;;;;;;;;;;;;;;;4968342;28;19930;-75
2022/10/21 00:57:44;;;;;;;;;;;;;;;;;;4967288;28;19926;-75
2022/10/21 01:00:10;;;;;;;;;;;;;;;;;;4968907;28;19948;-75
2022/10/21 01:02:36;;;;;;;;;;;;;;;;;;4964424;28;20033;-75
2022/10/21 01:05:02;;;;;;;;;;;;;;;;;;4967762;28;19934;-75
2022/10/21 01:07:28;;;;;;;;;;;;;;;;;;4966896;28;19956;-75
2022/10/21 01:09:54;;;;;;;;;;;;;;;;;;4964553;28;19942;-75
2022/10/21 01:12:20;;;;;;;;;;;;;;;;;;4968111;28;19927;-75
2022/10/21 01:14:46;;;;;;;;;;;;;;;;;;4968538;28;19933;-75
2022/10/21 01:17:12;;;;;;;;;;;;;;;;;;4967326;28;20444;-75
2022/10/21 01:19:37;;;;;;;;;;;;;;;;;;4968363;28;19965;-75
2022/10/21 01:22:03;;;;;;;;;;;;;;;;;;4968055;28;19926;-75
2022/10/21 01:24:29;;;;;;;;;;;;;;;;;;4971848;28;19934;-75
2022/10/21 01:26:55;;;;;;;;;;;;;;;;;;4968784;28;19930;-75
2022/10/21 01:29:21;;;;;;;;;;;;;;;;;;4967319;28;20366;-75
2022/10/21 01:31:47;;;;;;;;;;;;;;;;;;4966872;28;19927;-75
2022/10/21 01:34:13;;;;;;;;;;;;;;;;;;4966293;28;20453;-75
2022/10/21 01:36:39;;;;;;;;;;;;;;;;;;4969578;28;20389;-75
2022/10/21 01:39:05;;;;;;;;;;;;;;;;;;4967103;28;19926;-75
2022/10/21 01:41:31;;;;;;;;;;;;;;;;;;4964737;28;20739;-75
2022/10/21 01:43:57;;;;;;;;;;;;;;;;;;4968045;28;19994;-75
2022/10/21 01:46:23;;;;;;;;;;;;;;;;;;4966158;28;19930;-75
2022/10/21 01:48:49;;;;;;;;;;;;;;;;;;4967659;28;19930;-75
2022/10/21 01:51:15;;;;;;;;;;;;;;;;;;4964209;28;20395;-75
2022/10/21 01:53:41;;;;;;;;;;;;;;;;;;4969894;28;19989;-74
2022/10/21 01:56:06;;;;;;;;;;;;;;;;;;4967551;28;20052;-75
2022/10/21 01:58:32;;;;;;;;;;;;;;;;;;4974500;28;19930;-74
2022/10/21 02:00:58;;;;;;;;;;;;;;;;;;4967068;28;19926;-75
2022/10/21 02:03:24;;;;;;;;;;;;;;;;;;4960265;28;20378;-75
2022/10/21 02:05:50;;;;;;;;;;;;;;;;;;4967546;28;20386;-75
2022/10/21 02:08:16;;;;;;;;;;;;;;;;;;4961089;28;19966;-75
2022/10/21 02:10:42;;;;;;;;;;;;;;;;;;4967481;28;20080;-75
2022/10/21 02:13:08;;;;;;;;;;;;;;;;;;4959868;28;19926;-75
2022/10/21 02:15:34;;;;;;;;;;;;;;;;;;4966132;28;19926;-75
2022/10/21 02:18:00;;;;;;;;;;;;;;;;;;4969634;28;19926;-75
2022/10/21 02:20:26;;;;;;;;;;;;;;;;;;4962120;28;20001;-75
2022/10/21 02:22:52;;;;;;;;;;;;;;;;;;4965380;28;19926;-75
2022/10/21 02:25:18;;;;;;;;;;;;;;;;;;4969700;28;19927;-75
2022/10/21 02:27:44;;;;;;;;;;;;;;;;;;4964262;28;19930;-75
2022/10/21 02:30:10;;;;;;;;;;;;;;;;;;4962341;28;19930;-75
2022/10/21 02:32:35;;;;;;;;;;;;;;;;;;4964167;28;19930;-75
2022/10/21 02:35:01;;;;;;;;;;;;;;;;;;4966951;28;20300;-75
2022/10/21 02:37:27;;;;;;;;;;;;;;;;;;4967297;28;20397;-75
2022/10/21 02:39:53;;;;;;;;;;;;;;;;;;4968160;28;20017;-75
2022/10/21 02:42:19;;;;;;;;;;;;;;;;;;4960743;28;19973;-74
2022/10/21 02:44:45;;;;;;;;;;;;;;;;;;4967546;28;19930;-75
2022/10/21 02:47:11;;;;;;;;;;;;;;;;;;4963711;28;19930;-75
2022/10/21 02:49:37;;;;;;;;;;;;;;;;;;4968838;28;19926;-76
2022/10/21 02:52:03;;;;;;;;;;;;;;;;;;4967945;28;19984;-75
2022/10/21 02:54:29;;;;;;;;;;;;;;;;;;4964018;28;19930;-75
2022/10/21 02:56:55;;;;;;;;;;;;;;;;;;4966916;28;19926;-75
2022/10/21 02:59:21;;;;;;;;;;;;;;;;;;4965859;28;20014;-75
2022/10/21 03:01:47;;;;;;;;;;;;;;;;;;4964614;28;19937;-75
2022/10/21 03:04:13;;;;;;;;;;;;;;;;;;4964904;28;19942;-75
2022/10/21 03:06:38;;;;;;;;;;;;;;;;;;4966686;28;19926;-75
2022/10/21 03:09:04;;;;;;;;;;;;;;;;;;4965552;28;19930;-75
2022/10/21 03:11:30;;;;;;;;;;;;;;;;;;4961913;28;19941;-75
2022/10/21 03:13:56;;;;;;;;;;;;;;;;;;4957960;28;19969;-74
2022/10/21 03:16:22;;;;;;;;;;;;;;;;;;4966185;28;19934;-74
2022/10/21 03:18:48;;;;;;;;;;;;;;;;;;4967143;28;20006;-74
2022/10/21 03:21:14;;;;;;;;;;;;;;;;;;4965544;28;20025;-74
2022/10/21 03:23:40;;;;;;;;;;;;;;;;;;4966162;28;19926;-74
2022/10/21 03:26:06;;;;;;;;;;;;;;;;;;4966617;28;19930;-74
2022/10/21 03:28:32;;;;;;;;;;;;;;;;;;4965292;28;20365;-74
2022/10/21 03:30:58;;;;;;;;;;;;;;;;;;4963623;28;19926;-74
2022/10/21 03:33:24;;;;;;;;;;;;;;;;;;4963264;28;19922;-74
2022/10/21 03:35:50;;;;;;;;;;;;;;;;;;4962667;28;19933;-74
2022/10/21 03:38:16;;;;;;;;;;;;;;;;;;4966443;28;19930;-73
2022/10/21 03:40:42;;;;;;;;;;;;;;;;;;4963269;28;20024;-74
2022/10/21 03:43:08;;;;;;;;;;;;;;;;;;4963334;28;19931;-74
2022/10/21 03:45:33;;;;;;;;;;;;;;;;;;4965005;28;20432;-74
2022/10/21 03:47:59;;;;;;;;;;;;;;;;;;4965248;28;19964;-74
2022/10/21 03:50:25;;;;;;;;;;;;;;;;;;4967504;28;19961;-75
2022/10/21 03:52:51;;;;;;;;;;;;;;;;;;4963355;28;20317;-74
2022/10/21 03:55:19;;;;;;;;;;;;;;;;;;4954719;28;20305;-74
2022/10/21 03:57:45;;;;;;;;;;;;;;;;;;4960539;28;19926;-73
2022/10/21 04:00:11;;;;;;;;;;;;;;;;;;4962808;28;20266;-72
2022/10/21 04:02:37;;;;;;;;;;;;;;;;;;4963022;28;19958;-73
2022/10/21 04:05:03;;;;;;;;;;;;;;;;;;4965771;28;19930;-73
2022/10/21 04:07:29;;;;;;;;;;;;;;;;;;4968631;28;19966;-73
2022/10/21 04:09:55;;;;;;;;;;;;;;;;;;4967155;28;19922;-75
2022/10/21 04:12:21;;;;;;;;;;;;;;;;;;4965666;28;20017;-77
2022/10/21 04:14:47;;;;;;;;;;;;;;;;;;4963898;28;19969;-75
2022/10/21 04:17:13;;;;;;;;;;;;;;;;;;4965465;28;19941;-75
2022/10/21 04:19:38;;;;;;;;;;;;;;;;;;4950220;28;19933;-75
2022/10/21 04:22:04;;;;;;;;;;;;;;;;;;4970656;28;19957;-75
2022/10/21 04:24:30;;;;;;;;;;;;;;;;;;4966668;28;19926;-75
2022/10/21 04:26:56;;;;;;;;;;;;;;;;;;4970376;28;19926;-75
2022/10/21 04:29:22;;;;;;;;;;;;;;;;;;4967331;28;20141;-78
2022/10/21 04:31:48;;;;;;;;;;;;;;;;;;4967104;28;20016;-77
2022/10/21 04:34:14;;;;;;;;;;;;;;;;;;4969061;28;19927;-75
2022/10/21 04:36:40;;;;;;;;;;;;;;;;;;4966386;28;19927;-77
2022/10/21 04:39:06;;;;;;;;;;;;;;;;;;4967035;28;19942;-77
2022/10/21 04:41:32;;;;;;;;;;;;;;;;;;4967505;28;19976;-75
2022/10/21 04:43:58;;;;;;;;;;;;;;;;;;4968016;28;19941;-75
2022/10/21 04:46:24;;;;;;;;;;;;;;;;;;4968187;28;20340;-74
2022/10/21 04:48:50;;;;;;;;;;;;;;;;;;4970114;28;20025;-73
2022/10/21 04:51:16;;;;;;;;;;;;;;;;;;4962373;28;19930;-73
2022/10/21 04:53:42;;;;;;;;;;;;;;;;;;4966564;28;19933;-76
2022/10/21 04:56:08;;;;;;;;;;;;;;;;;;4971208;28;20365;-73
2022/10/21 04:58:34;;;;;;;;;;;;;;;;;;4975466;28;20301;-73
2022/10/21 05:00:59;;;;;;;;;;;;;;;;;;4969739;28;19984;-73
2022/10/21 05:03:25;;;;;;;;;;;;;;;;;;4968758;28;19927;-73
2022/10/21 05:05:51;;;;;;;;;;;;;;;;;;4968865;28;19933;-73
2022/10/21 05:08:17;;;;;;;;;;;;;;;;;;4964080;28;19998;-73
2022/10/21 05:10:43;;;;;;;;;;;;;;;;;;4956378;28;19930;-73
2022/10/21 05:13:09;;;;;;;;;;;;;;;;;;4956838;28;20381;-73
2022/10/21 05:15:35;;;;;;;;;;;;;;;;;;4959837;28;20548;-73
2022/10/21 05:18:01;;;;;;;;;;;;;;;;;;4961281;28;20013;-73
2022/10/21 05:20:27;;;;;;;;;;;;;;;;;;4971284;28;19926;-73
2022/10/21 05:22:53;;;;;;;;;;;;;;;;;;4971342;28;19930;-73
2022/10/21 05:25:19;;;;;;;;;;;;;;;;;;4960529;28;19952;-73
2022/10/21 05:27:45;;;;;;;;;;;;;;;;;;4969899;28;20396;-73
2022/10/21 05:30:11;;;;;;;;;;;;;;;;;;4967389;28;20262;-73
2022/10/21 05:32:37;;;;;;;;;;;;;;;;;;4967356;28;20344;-73
2022/10/21 05:35:03;;;;;;;;;;;;;;;;;;4962475;28;19930;-73
2022/10/21 05:37:29;;;;;;;;;;;;;;;;;;4957696;28;19937;-74
2022/10/21 05:39:54;;;;;;;;;;;;;;;;;;4971449;28;19972;-73
2022/10/21 05:42:20;;;;;;;;;;;;;;;;;;4971608;28;19937;-73
2022/10/21 05:44:47;;;;;;;;;;;;;;;;;;4960724;28;19941;-73
2022/10/21 05:47:13;;;;;;;;;;;;;;;;;;4968195;28;19931;-73
2022/10/21 05:49:39;;;;;;;;;;;;;;;;;;4963584;28;20304;-73
2022/10/21 05:52:04;;;;;;;;;;;;;;;;;;4969673;28;20372;-73
2022/10/21 05:54:30;;;;;;;;;;;;;;;;;;4957045;28;19930;-73
2022/10/21 05:56:56;;;;;;;;;;;;;;;;;;4968146;28;19949;-73
2022/10/21 05:59:22;;;;;;;;;;;;;;;;;;4962523;28;20058;-73
2022/10/21 06:01:48;;;;;;;;;;;;;;;;;;4960322;28;19931;-73
2022/10/21 06:04:14;;;;;;;;;;;;;;;;;;4966318;28;19930;-73
2022/10/21 06:06:40;;;;;;;;;;;;;;;;;;4961277;28;19972;-74
2022/10/21 06:09:06;;;;;;;;;;;;;;;;;;4955664;28;19927;-73
2022/10/21 06:11:32;;;;;;;;;;;;;;;;;;4958173;28;19926;-73
2022/10/21 06:13:58;;;;;;;;;;;;;;;;;;4960854;28;19982;-73
2022/10/21 06:16:24;;;;;;;;;;;;;;;;;;4955686;28;19934;-73
2022/10/21 06:18:50;;;;;;;;;;;;;;;;;;4959959;28;19926;-73
2022/10/21 06:21:16;;;;;;;;;;;;;;;;;;4955737;28;19930;-73
2022/10/21 06:23:42;;;;;;;;;;;;;;;;;;4964152;28;20032;-73
2022/10/21 06:26:08;;;;;;;;;;;;;;;;;;4963242;28;19990;-73
2022/10/21 06:28:34;;;;;;;;;;;;;;;;;;4954240;28;19930;-72
2022/10/21 06:31:00;;;;;;;;;;;;;;;;;;4956620;28;20294;-73
2022/10/21 06:33:26;;;;;;;;;;;;;;;;;;4959915;28;19927;-73
2022/10/21 06:35:51;;;;;;;;;;;;;;;;;;4960426;28;19926;-73
2022/10/21 06:38:17;;;;;;;;;;;;;;;;;;4955379;28;19930;-73
2022/10/21 06:40:43;;;;;;;;;;;;;;;;;;4957562;28;19927;-73
2022/10/21 06:43:09;;;;;;;;;;;;;;;;;;4964069;28;20037;-73
2022/10/21 06:45:35;;;;;;;;;;;;;;;;;;4955456;28;19926;-73
2022/10/21 06:48:01;;;;;;;;;;;;;;;;;;4963266;28;19926;-73
2022/10/21 06:50:27;;;;;;;;;;;;;;;;;;4969817;28;20013;-73
2022/10/21 06:52:53;;;;;;;;;;;;;;;;;;4963903;28;19930;-73
2022/10/21 06:55:19;;;;;;;;;;;;;;;;;;4961571;28;19926;-73
2022/10/21 06:57:45;;;;;;;;;;;;;;;;;;4971514;28;19980;-73
2022/10/21 07:00:11;;;;;;;;;;;;;;;;;;4968437;28;20011;-73
2022/10/21 07:02:37;;;;;;;;;;;;;;;;;;4964170;28;19941;-73
2022/10/21 07:05:03;;;;;;;;;;;;;;;;;;4968105;28;19941;-73
2022/10/21 07:07:29;;;;;;;;;;;;;;;;;;4965988;28;20404;-73
2022/10/21 07:09:56;;;;;;;;;;;;;;;;;;4957871;28;19926;-73
2022/10/21 07:12:22;;;;;;;;;;;;;;;;;;4966149;28;19984;-73
2022/10/21 07:14:48;;;;;;;;;;;;;;;;;;4963194;28;19934;-73
2022/10/21 07:17:14;;;;;;;;;;;;;;;;;;4964571;28;19926;-73
2022/10/21 07:19:40;;;;;;;;;;;;;;;;;;4956917;28;19927;-73
2022/10/21 07:22:06;;;;;;;;;;;;;;;;;;4960834;28;19970;-74
2022/10/21 07:24:32;;;;;;;;;;;;;;;;;;4961384;28;19933;-73
2022/10/21 07:26:58;;;;;;;;;;;;;;;;;;4969052;28;20024;-73
2022/10/21 07:29:24;;;;;;;;;;;;;;;;;;4954213;28;19934;-73
2022/10/21 07:31:50;;;;;;;;;;;;;;;;;;4962086;28;19933;-73
2022/10/21 07:34:16;;;;;;;;;;;;;;;;;;4961558;28;19976;-76
2022/10/21 07:36:42;;;;;;;;;;;;;;;;;;4968949;28;19926;-76
2022/10/21 07:39:08;;;;;;;;;;;;;;;;;;4965321;28;19934;-73
2022/10/21 07:41:34;;;;;;;;;;;;;;;;;;4968224;28;19929;-73
2022/10/21 07:44:00;;;;;;;;;;;;;;;;;;4966060;28;19932;-73
2022/10/21 07:46:26;;;;;;;;;;;;;;;;;;4964095;28;20403;-73
2022/10/21 07:48:52;;;;;;;;;;;;;;;;;;4972685;28;20361;-73
2022/10/21 07:51:18;;;;;;;;;;;;;;;;;;4966981;28;20313;-74
2022/10/21 07:53:44;;;;;;;;;;;;;;;;;;4966379;28;20009;-73
2022/10/21 07:56:10;;;;;;;;;;;;;;;;;;4964615;28;19938;-73
2022/10/21 07:58:36;;;;;;;;;;;;;;;;;;4972339;28;19961;-73
2022/10/21 08:01:02;;;;;;;;;;;;;;;;;;4968012;28;19930;-74
2022/10/21 08:03:27;;;;;;;;;;;;;;;;;;4958987;28;19927;-76
2022/10/21 08:05:53;;;;;;;;;;;;;;;;;;4959466;28;20046;-73
2022/10/21 08:08:22;;;;;;;;;;;;;;;;;;4974119;28;20381;-74
2022/10/21 08:10:48;;;;;;;;;;;;;;;;;;4968157;28;19953;-74
2022/10/21 08:13:14;;;;;;;;;;;;;;;;;;4957079;28;19930;-76
2022/10/21 08:15:40;;;;;;;;;;;;;;;;;;4971459;28;20300;-73
2022/10/21 08:18:06;;;;;;;;;;;;;;;;;;4969619;28;19926;-76
2022/10/21 08:20:32;;;;;;;;;;;;;;;;;;4968235;28;20292;-77
2022/10/21 08:22:58;;;;;;;;;;;;;;;;;;4970210;28;20269;-76
2022/10/21 08:25:28;;;;;;;;;;;;;;;;;;4972687;28;19965;-75
2022/10/21 08:27:54;;;;;;;;;;;;;;;;;;4964858;28;19930;-75
2022/10/21 08:30:20;;;;;;;;;;;;;;;;;;4963954;28;20293;-75
2022/10/21 08:32:46;;;;;;;;;;;;;;;;;;4972673;28;20206;-75
2022/10/21 08:35:12;;;;;;;;;;;;;;;;;;4966009;28;20388;-77
2022/10/21 08:37:38;;;;;;;;;;;;;;;;;;4967491;28;20275;-76
2022/10/21 08:40:04;;;;;;;;;;;;;;;;;;4958650;28;19926;-79
2022/10/21 08:42:30;;;;;;;;;;;;;;;;;;4967101;28;19927;-78
2022/10/21 08:44:56;;;;;;;;;;;;;;;;;;4969316;28;20005;-78
2022/10/21 08:47:22;;;;;;;;;;;;;;;;;;4952757;28;19930;-78
2022/10/21 08:49:48;;;;;;;;;;;;;;;;;;4972035;28;19974;-78
2022/10/21 08:52:14;;;;;;;;;;;;;;;;;;4969663;28;19933;-78
2022/10/21 08:54:40;;;;;;;;;;;;;;;;;;4971076;28;19989;-78
2022/10/21 08:57:06;;;;;;;;;;;;;;;;;;4963061;28;19926;-78
2022/10/21 08:59:31;;;;;;;;;;;;;;;;;;4958351;28;19926;-78
2022/10/21 09:01:57;;;;;;;;;;;;;;;;;;4967932;28;19934;-77
2022/10/21 09:04:23;;;;;;;;;;;;;;;;;;4970642;28;20033;-75
2022/10/21 09:06:49;;;;;;;;;;;;;;;;;;4965687;28;19926;-78
2022/10/21 09:09:15;;;;;;;;;;;;;;;;;;4962414;28;19985;-78
2022/10/21 09:11:41;;;;;;;;;;;;;;;;;;4961118;28;19930;-78
2022/10/21 09:14:07;;;;;;;;;;;;;;;;;;4962949;28;19926;-78
2022/10/21 09:16:33;;;;;;;;;;;;;;;;;;4969313;28;19937;-75
2022/10/21 09:18:59;;;;;;;;;;;;;;;;;;4970593;28;19926;-75
2022/10/21 09:21:25;;;;;;;;;;;;;;;;;;4952868;28;19934;-76
2022/10/21 09:23:51;;;;;;;;;;;;;;;;;;4960625;28;19929;-75
2022/10/21 09:26:17;;;;;;;;;;;;;;;;;;4966511;28;19926;-75
2022/10/21 09:28:43;;;;;;;;;;;;;;;;;;4971927;28;20057;-76
2022/10/21 09:31:09;;;;;;;;;;;;;;;;;;4968536;28;20293;-76
2022/10/21 09:33:35;;;;;;;;;;;;;;;;;;4978656;28;19957;-76
2022/10/21 09:36:01;;;;;;;;;;;;;;;;;;4969452;28;19934;-75
2022/10/21 09:38:27;;;;;;;;;;;;;;;;;;4964909;28;19926;-75
2022/10/21 09:40:58;;;;;;;;;;;;;;;;;;4967213;28;19930;-76
2022/10/21 09:43:24;;;;;;;;;;;;;;;;;;4973765;28;19926;-75
2022/10/21 09:45:49;;;;;;;;;;;;;;;;;;4971470;28;20361;-75
2022/10/21 09:48:15;;;;;;;;;;;;;;;;;;4967739;28;20398;-75
2022/10/21 09:50:41;;;;;;;;;;;;;;;;;;4967726;28;20385;-76
2022/10/21 09:53:07;;;;;;;;;;;;;;;;;;4964843;28;20078;-76
2022/10/21 09:55:33;;;;;;;;;;;;;;;;;;4956403;28;20373;-75
2022/10/21 09:57:59;;;;;;;;;;;;;;;;;;4960851;28;20450;-76
2022/10/21 10:00:25;;;;;;;;;;;;;;;;;;4972332;28;19930;-76
2022/10/21 10:02:51;;;;;;;;;;;;;;;;;;4967745;28;20035;-76
2022/10/21 10:05:17;;;;;;;;;;;;;;;;;;4966466;28;19927;-76
2022/10/21 10:07:43;;;;;;;;;;;;;;;;;;4966082;28;19930;-76
2022/10/21 10:10:09;;;;;;;;;;;;;;;;;;4966379;28;19939;-76
2022/10/21 10:12:35;;;;;;;;;;;;;;;;;;4965624;28;19930;-76
2022/10/21 10:15:01;;;;;;;;;;;;;;;;;;4968156;28;19933;-77
2022/10/21 10:17:30;;;;;;;;;;;;;;;;;;4968269;28;19973;-74
2022/10/21 10:19:56;;;;;;;;;;;;;;;;;;4968346;28;19933;-74
2022/10/21 10:22:23;;;;;;;;;;;;;;;;;;4968962;28;19930;-74
2022/10/21 10:24:49;;;;;;;;;;;;;;;;;;4967276;28;19933;-75
2022/10/21 10:27:15;;;;;;;;;;;;;;;;;;4952570;28;20513;-74
2022/10/21 10:29:41;;;;;;;;;;;;;;;;;;4963597;28;19934;-75
2022/10/21 10:32:07;;;;;;;;;;;;;;;;;;4969917;28;19930;-75
2022/10/21 10:34:33;;;;;;;;;;;;;;;;;;4968971;28;19930;-75
2022/10/21 10:36:59;;;;;;;;;;;;;;;;;;4964545;28;20324;-75
2022/10/21 10:39:25;;;;;;;;;;;;;;;;;;4967607;28;19926;-75
2022/10/21 10:41:51;;;;;;;;;;;;;;;;;;4960317;28;20429;-75
2022/10/21 10:44:17;;;;;;;;;;;;;;;;;;4955965;28;19926;-75
2022/10/21 10:46:43;;;;;;;;;;;;;;;;;;4970869;28;19930;-74
2022/10/21 10:49:09;;;;;;;;;;;;;;;;;;4968757;28;19984;-74
2022/10/21 10:51:35;;;;;;;;;;;;;;;;;;4969320;28;19934;-75
2022/10/21 10:54:01;;;;;;;;;;;;;;;;;;4960735;28;19973;-75
2022/10/21 10:56:27;;;;;;;;;;;;;;;;;;4957353;28;19933;-74
2022/10/21 10:58:53;;;;;;;;;;;;;;;;;;4970652;28;19945;-74
2022/10/21 11:01:19;;;;;;;;;;;;;;;;;;4971997;28;19973;-74
2022/10/21 11:03:45;;;;;;;;;;;;;;;;;;4968173;28;19977;-74
2022/10/21 11:06:11;;;;;;;;;;;;;;;;;;4964611;28;19941;-75
2022/10/21 11:08:37;;;;;;;;;;;;;;;;;;4969008;28;19934;-75
2022/10/21 11:11:03;;;;;;;;;;;;;;;;;;4971596;28;19934;-75
2022/10/21 11:13:29;;;;;;;;;;;;;;;;;;4983432;28;19937;-75
2022/10/21 11:15:55;;;;;;;;;;;;;;;;;;4964982;28;20344;-75
2022/10/21 11:18:21;;;;;;;;;;;;;;;;;;4963532;28;19934;-74
2022/10/21 11:20:47;;;;;;;;;;;;;;;;;;4959232;28;20282;-74
2022/10/21 11:23:13;;;;;;;;;;;;;;;;;;4964452;28;19934;-74
2022/10/21 11:25:39;;;;;;;;;;;;;;;;;;4958895;28;20405;-74
2022/10/21 11:28:05;;;;;;;;;;;;;;;;;;4967987;28;20395;-74
2022/10/21 11:30:31;;;;;;;;;;;;;;;;;;4966622;28;20381;-75
2022/10/21 11:32:57;;;;;;;;;;;;;;;;;;4956693;28;19927;-75
2022/10/21 11:35:22;;;;;;;;;;;;;;;;;;4963747;28;19933;-75
2022/10/21 11:37:48;;;;;;;;;;;;;;;;;;4971986;28;20034;-75
2022/10/21 11:40:14;;;;;;;;;;;;;;;;;;4960822;28;19927;-74
2022/10/21 11:42:40;;;;;;;;;;;;;;;;;;4969826;28;20032;-74
2022/10/21 11:45:06;;;;;;;;;;;;;;;;;;4962642;28;19927;-75
2022/10/21 11:47:32;;;;;;;;;;;;;;;;;;4959687;28;19926;-75
2022/10/21 11:49:58;;;;;;;;;;;;;;;;;;4969810;28;19927;-75
2022/10/21 11:52:24;;;;;;;;;;;;;;;;;;4966640;28;19926;-75
2022/10/21 11:54:50;;;;;;;;;;;;;;;;;;4962066;28;19977;-75
2022/10/21 11:57:16;;;;;;;;;;;;;;;;;;4971079;28;19932;-75
2022/10/21 11:59:42;;;;;;;;;;;;;;;;;;4967595;28;19933;-74
2022/10/21 12:02:08;;;;;;;;;;;;;;;;;;4965488;28;21335;-74
2022/10/21 12:04:34;;;;;;;;;;;;;;;;;;4959424;28;19933;-74
2022/10/21 12:07:00;;;;;;;;;;;;;;;;;;4969740;28;20016;-75
2022/10/21 12:09:26;;;;;;;;;;;;;;;;;;4971973;28;20033;-74
2022/10/21 12:11:52;;;;;;;;;;;;;;;;;;4954198;28;19926;-74
2022/10/21 12:14:18;;;;;;;;;;;;;;;;;;4960375;28;20294;-74
2022/10/21 12:16:44;;;;;;;;;;;;;;;;;;4965518;28;19927;-73
2022/10/21 12:19:10;;;;;;;;;;;;;;;;;;4965617;28;19927;-74
2022/10/21 12:21:35;;;;;;;;;;;;;;;;;;4968737;28;19926;-74
2022/10/21 12:24:01;;;;;;;;;;;;;;;;;;4958211;28;19927;-74
2022/10/21 12:26:27;;;;;;;;;;;;;;;;;;4965870;28;19949;-74
2022/10/21 12:28:53;;;;;;;;;;;;;;;;;;4963273;28;19931;-74
2022/10/21 12:31:19;;;;;;;;;;;;;;;;;;4961962;28;20019;-74
2022/10/21 12:33:45;;;;;;;;;;;;;;;;;;4964544;28;19958;-77
2022/10/21 12:36:11;;;;;;;;;;;;;;;;;;4973958;28;20017;-77
2022/10/21 12:38:37;;;;;;;;;;;;;;;;;;4959991;28;20060;-76
2022/10/21 12:41:03;;;;;;;;;;;;;;;;;;4969487;28;20000;-76
2022/10/21 12:43:29;;;;;;;;;;;;;;;;;;4973286;28;20296;-75
2022/10/21 12:45:55;;;;;;;;;;;;;;;;;;4968687;28;20292;-75
2022/10/21 12:48:21;;;;;;;;;;;;;;;;;;4966104;28;19986;-76
2022/10/21 12:50:47;;;;;;;;;;;;;;;;;;4972191;28;19932;-76
2022/10/21 12:53:13;;;;;;;;;;;;;;;;;;4962974;28;19927;-76
2022/10/21 12:55:39;;;;;;;;;;;;;;;;;;4972346;28;20004;-76
2022/10/21 12:58:05;;;;;;;;;;;;;;;;;;4968809;28;20308;-75
2022/10/21 13:00:31;;;;;;;;;;;;;;;;;;4962369;28;19927;-76
2022/10/21 13:02:57;;;;;;;;;;;;;;;;;;4965442;28;19926;-76
2022/10/21 13:05:23;;;;;;;;;;;;;;;;;;4961698;28;19926;-76
2022/10/21 13:07:49;;;;;;;;;;;;;;;;;;4969249;28;19926;-76
2022/10/21 13:10:15;;;;;;;;;;;;;;;;;;4963340;28;19997;-76
2022/10/21 13:12:41;;;;;;;;;;;;;;;;;;4968360;28;19941;-79
2022/10/21 13:15:07;;;;;;;;;;;;;;;;;;4968080;28;19973;-78
2022/10/21 13:17:33;;;;;;;;;;;;;;;;;;4956053;28;19985;-79
2022/10/21 13:19:59;;;;;;;;;;;;;;;;;;4966254;28;19933;-78
2022/10/21 13:22:25;;;;;;;;;;;;;;;;;;4964165;28;20408;-78
2022/10/21 13:24:51;;;;;;;;;;;;;;;;;;4956327;28;20001;-77
2022/10/21 13:27:17;;;;;;;;;;;;;;;;;;4968981;28;19930;-79
2022/10/21 13:29:43;;;;;;;;;;;;;;;;;;4970816;28;20021;-77
2022/10/21 13:32:09;;;;;;;;;;;;;;;;;;4965747;28;19937;-79
2022/10/21 13:34:35;;;;;;;;;;;;;;;;;;4972756;28;19931;-78
2022/10/21 13:37:01;;;;;;;;;;;;;;;;;;4955639;28;20353;-78
2022/10/21 13:39:26;;;;;;;;;;;;;;;;;;4953643;28;20016;-78
2022/10/21 13:41:52;;;;;;;;;;;;;;;;;;4968606;28;19926;-77
2022/10/21 13:44:18;;;;;;;;;;;;;;;;;;4967675;28;19941;-76
2022/10/21 13:46:44;;;;;;;;;;;;;;;;;;4966214;28;19933;-78
2022/10/21 13:49:10;;;;;;;;;;;;;;;;;;4961318;28;19986;-77
2022/10/21 13:51:36;;;;;;;;;;;;;;;;;;4957676;28;19926;-78
2022/10/21 13:54:02;;;;;;;;;;;;;;;;;;4965555;28;20405;-78
2022/10/21 13:56:28;;;;;;;;;;;;;;;;;;4954783;28;19937;-78
2022/10/21 13:58:54;;;;;;;;;;;;;;;;;;4960643;28;20017;-77
2022/10/21 14:01:20;;;;;;;;;;;;;;;;;;4956216;28;20301;-76
2022/10/21 14:03:46;;;;;;;;;;;;;;;;;;4961515;28;20087;-76
2022/10/21 14:06:12;;;;;;;;;;;;;;;;;;4966283;28;20388;-76
2022/10/21 14:08:38;;;;;;;;;;;;;;;;;;4967573;28;19926;-77
2022/10/21 14:11:04;;;;;;;;;;;;;;;;;;4981574;28;20354;-77
2022/10/21 14:13:30;;;;;;;;;;;;;;;;;;4970878;28;19972;-77
2022/10/21 14:15:56;;;;;;;;;;;;;;;;;;4971491;28;19972;-76
2022/10/21 14:18:22;;;;;;;;;;;;;;;;;;4971545;28;19941;-76
2022/10/21 14:20:48;;;;;;;;;;;;;;;;;;4969256;28;20451;-76
2022/10/21 14:23:14;;;;;;;;;;;;;;;;;;4975739;28;19926;-76
2022/10/21 14:25:40;;;;;;;;;;;;;;;;;;4967705;28;20376;-76
2022/10/21 14:28:06;;;;;;;;;;;;;;;;;;4966728;28;19926;-77
2022/10/21 14:30:32;;;;;;;;;;;;;;;;;;4947355;28;19988;-77
2022/10/21 14:32:58;;;;;;;;;;;;;;;;;;4964506;28;19930;-77
2022/10/21 14:35:24;;;;;;;;;;;;;;;;;;4967670;28;19932;-76
2022/10/21 14:37:50;;;;;;;;;;;;;;;;;;4957131;28;19927;-76
2022/10/21 14:40:16;;;;;;;;;;;;;;;;;;4960227;28;20018;-76
2022/10/21 14:42:41;;;;;;;;;;;;;;;;;;4972185;28;20328;-76
2022/10/21 14:45:07;;;;;;;;;;;;;;;;;;4964670;28;20276;-75
2022/10/21 14:47:33;;;;;;;;;;;;;;;;;;4967525;28;19970;-76
2022/10/21 14:49:59;;;;;;;;;;;;;;;;;;4970703;28;20376;-76
2022/10/21 14:52:25;;;;;;;;;;;;;;;;;;4956257;28;20088;-76
2022/10/21 15:00:13;;;;;;;;;;;;;;;;;;5370836;23;19932;-74
2022/10/21 15:02:39;;;;;;;;;;;;;;;;;;4973929;28;20012;-75
2022/10/21 15:05:05;;;;;;;;;;;;;;;;;;4971362;28;19934;-75
2022/10/21 15:07:31;;;;;;;;;;;;;;;;;;4973537;28;20376;-74
2022/10/21 15:09:57;;;;;;;;;;;;;;;;;;4972028;28;19925;-74
2022/10/21 15:12:23;;;;;;;;;;;;;;;;;;4973658;28;19926;-74
2022/10/21 15:14:49;;;;;;;;;;;;;;;;;;4973069;28;19926;-74
2022/10/21 15:17:15;;;;;;;;;;;;;;;;;;4988717;28;19974;-74
2022/10/21 15:19:41;;;;;;;;;;;;;;;;;;4971760;28;19926;-74
2022/10/21 15:22:06;;;;;;;;;;;;;;;;;;4972969;28;19976;-74
2022/10/21 15:24:33;;;;;;;;;;;;;;;;;;4973536;28;19948;-74
2022/10/21 15:26:59;;;;;;;;;;;;;;;;;;4972786;28;20245;-74
2022/10/21 15:29:26;;;;;;;;;;;;;;;;;;4973104;28;19930;-74
2022/10/21 15:31:52;;;;;;;;;;;;;;;;;;4973052;28;20009;-74
2022/10/21 15:34:18;;;;;;;;;;;;;;;;;;4972889;28;20032;-74
2022/10/21 15:36:44;;;;;;;;;;;;;;;;;;4973369;28;19930;-74
2022/10/21 15:39:10;;;;;;;;;;;;;;;;;;4988440;28;19926;-74
2022/10/21 15:41:36;;;;;;;;;;;;;;;;;;4973145;28;19932;-74
2022/10/21 15:44:01;;;;;;;;;;;;;;;;;;4972174;28;19977;-73
2022/10/21 15:46:28;;;;;;;;;;;;;;;;;;4973485;28;20244;-74
2022/10/21 15:48:54;;;;;;;;;;;;;;;;;;4972706;28;19922;-73
2022/10/21 15:51:20;;;;;;;;;;;;;;;;;;4973127;28;20021;-74
2022/10/21 15:53:46;;;;;;;;;;;;;;;;;;4973173;28;19980;-74
2022/10/21 15:56:12;;;;;;;;;;;;;;;;;;4988451;28;19926;-74
2022/10/21 15:58:38;;;;;;;;;;;;;;;;;;4973468;28;19933;-73
2022/10/21 16:01:03;;;;;;;;;;;;;;;;;;4974434;28;19926;-73
2022/10/21 16:03:30;;;;;;;;;;;;;;;;;;4976637;28;19926;-74
2022/10/21 16:05:56;;;;;;;;;;;;;;;;;;4975927;28;19981;-73
2022/10/21 16:08:22;;;;;;;;;;;;;;;;;;4976572;28;19937;-75
2022/10/21 16:10:48;;;;;;;;;;;;;;;;;;4976498;28;19926;-74
2022/10/21 16:13:14;;;;;;;;;;;;;;;;;;4976907;28;19984;-74
2022/10/21 16:15:40;;;;;;;;;;;;;;;;;;4976596;28;20377;-74
2022/10/21 16:18:06;;;;;;;;;;;;;;;;;;4976065;28;19932;-74
2022/10/21 16:20:34;;;;;;;;;;;;;;;;;;4975463;28;20336;-74
2022/10/21 16:23:00;;;;;;;;;;;;;;;;;;4976146;28;19926;-74
2022/10/21 16:25:26;;;;;;;;;;;;;;;;;;4976084;28;19933;-73
2022/10/21 16:27:52;;;;;;;;;;;;;;;;;;4975826;28;19954;-74
2022/10/21 16:30:18;;;;;;;;;;;;;;;;;;4992048;28;20400;-74
2022/10/21 16:32:44;;;;;;;;;;;;;;;;;;4975099;28;19932;-74
2022/10/21 16:35:10;;;;;;;;;;;;;;;;;;4975944;28;19926;-74
2022/10/21 16:37:36;;;;;;;;;;;;;;;;;;4976118;28;19926;-74
2022/10/21 16:40:01;;;;;;;;;;;;;;;;;;4975717;28;19926;-74
2022/10/21 16:42:27;;;;;;;;;;;;;;;;;;4976142;28;19930;-75